createdAt,value
2019-06-08T00:00:47.187Z,19.92
2019-06-08T00:03:16.672Z,19.86
2019-06-08T00:05:45.285Z,19.79
2019-06-08T00:08:14.810Z,19.85
2019-06-08T00:10:43.417Z,19.81
2019-06-08T00:13:13.116Z,19.82
2019-06-08T00:15:41.823Z,19.78
2019-06-08T00:18:10.706Z,19.73
2019-06-08T00:20:39.287Z,19.74
2019-06-08T00:23:08.084Z,19.72
2019-06-08T00:25:36.661Z,19.69
2019-06-08T00:28:05.369Z,19.63
2019-06-08T00:30:35.166Z,19.62
2019-06-08T00:33:03.806Z,19.51
2019-06-08T00:35:32.345Z,19.39
2019-06-08T00:38:01.325Z,19.44
2019-06-08T00:40:29.926Z,19.52
2019-06-08T00:42:58.470Z,19.51
2019-06-08T00:45:27.371Z,19.45
2019-06-08T00:47:55.954Z,19.45
2019-06-08T00:50:25.146Z,19.41
2019-06-08T00:52:53.855Z,19.41
2019-06-08T00:55:23.761Z,19.34
2019-06-08T00:57:52.362Z,19.37
2019-06-08T01:00:22.371Z,19.34
2019-06-08T01:02:51.293Z,19.31
2019-06-08T01:05:20.038Z,19.29
2019-06-08T01:07:48.950Z,19.27
2019-06-08T01:10:17.613Z,19.28
2019-06-08T01:12:46.171Z,19.20
2019-06-08T01:15:16.497Z,19.14
2019-06-08T01:17:45.049Z,19.13
2019-06-08T01:20:13.902Z,19.15
2019-06-08T01:22:42.486Z,19.07
2019-06-08T01:25:11.358Z,19.00
2019-06-08T01:27:39.952Z,18.95
2019-06-08T01:30:08.733Z,18.98
2019-06-08T01:32:37.935Z,18.96
2019-06-08T01:35:06.873Z,19.01
2019-06-08T01:37:35.425Z,19.04
2019-06-08T01:40:04.587Z,18.99
2019-06-08T01:42:33.133Z,18.95
2019-06-08T01:45:02.655Z,18.95
2019-06-08T01:47:32.724Z,18.94
2019-06-08T01:50:01.289Z,18.83
2019-06-08T01:52:30.901Z,18.76
2019-06-08T01:54:59.531Z,18.79
2019-06-08T01:57:29.308Z,18.74
2019-06-08T01:59:57.941Z,18.71
2019-06-08T02:02:27.831Z,18.73
2019-06-08T02:04:56.468Z,18.71
2019-06-08T02:07:26.256Z,18.78
2019-06-08T02:09:54.990Z,18.90
2019-06-08T02:12:24.769Z,18.87
2019-06-08T02:14:53.690Z,18.83
2019-06-08T02:17:22.284Z,18.76
2019-06-08T02:19:50.861Z,18.75
2019-06-08T02:22:19.422Z,18.75
2019-06-08T02:24:48.395Z,18.71
2019-06-08T02:27:16.964Z,18.73
2019-06-08T02:29:45.917Z,18.74
2019-06-08T02:32:14.450Z,18.67
2019-06-08T02:34:43.376Z,18.69
2019-06-08T02:37:11.941Z,18.64
2019-06-08T02:39:40.547Z,18.58
2019-06-08T02:42:09.429Z,18.61
2019-06-08T02:44:37.971Z,18.70
2019-06-08T02:47:06.531Z,18.65
2019-06-08T02:49:35.466Z,18.65
2019-06-08T02:52:04.475Z,18.62
2019-06-08T02:54:35.343Z,18.63
2019-06-08T02:57:04.874Z,18.56
2019-06-08T02:59:37.795Z,18.54
2019-06-08T03:02:06.427Z,18.56
2019-06-08T03:04:38.780Z,18.52
2019-06-08T03:07:07.791Z,18.46
2019-06-08T03:09:38.528Z,18.44
2019-06-08T03:12:07.195Z,18.29
2019-06-08T03:14:37.505Z,18.37
2019-06-08T03:17:06.026Z,18.35
2019-06-08T03:19:35.691Z,18.37
2019-06-08T03:22:04.345Z,18.32
2019-06-08T03:24:34.451Z,18.36
2019-06-08T03:27:03.705Z,18.35
2019-06-08T03:29:32.530Z,18.35
2019-06-08T03:32:01.175Z,18.37
2019-06-08T03:34:29.747Z,18.38
2019-06-08T03:36:58.291Z,18.31
2019-06-08T03:39:28.497Z,18.29
2019-06-08T03:41:57.068Z,18.30
2019-06-08T03:44:25.637Z,18.23
2019-06-08T03:46:54.215Z,18.21
2019-06-08T03:49:40.376Z,18.26
2019-06-08T03:51:53.163Z,18.30
2019-06-08T03:54:21.722Z,18.31
2019-06-08T03:56:50.287Z,18.29
2019-06-08T03:59:18.886Z,18.29
2019-06-08T04:01:47.523Z,18.33
2019-06-08T04:04:16.046Z,18.28
2019-06-08T04:06:45.748Z,18.28
2019-06-08T04:09:14.355Z,18.30
2019-06-08T04:11:44.960Z,18.32
2019-06-08T04:14:13.860Z,18.26
2019-06-08T04:16:44.373Z,18.22
2019-06-08T04:19:12.738Z,18.28
2019-06-08T04:21:41.828Z,18.17
2019-06-08T04:24:10.378Z,18.19
2019-06-08T04:26:40.576Z,18.17
2019-06-08T04:29:09.842Z,18.13
2019-06-08T04:31:39.644Z,18.16
2019-06-08T04:34:08.274Z,18.14
2019-06-08T04:36:36.844Z,18.09
2019-06-08T04:39:07.223Z,18.04
2019-06-08T04:41:35.803Z,18.03
2019-06-08T04:44:04.348Z,18.05
2019-06-08T04:46:32.923Z,18.05
2019-06-08T04:49:01.472Z,18.14
2019-06-08T04:51:30.569Z,18.13
2019-06-08T04:53:59.103Z,18.10
2019-06-08T04:56:27.663Z,18.11
2019-06-08T04:58:56.237Z,18.07
2019-06-08T05:01:24.907Z,18.10
2019-06-08T05:03:53.482Z,18.04
2019-06-08T05:06:22.310Z,18.05
2019-06-08T05:08:50.907Z,18.09
2019-06-08T05:11:19.468Z,18.03
2019-06-08T05:13:49.421Z,17.97
2019-06-08T05:16:18.293Z,18.00
2019-06-08T05:18:47.372Z,17.92
2019-06-08T05:21:15.951Z,17.88
2019-06-08T05:23:45.587Z,17.81
2019-06-08T05:26:14.187Z,17.85
2019-06-08T05:28:43.187Z,17.92
2019-06-08T05:31:11.768Z,17.93
2019-06-08T05:33:41.299Z,17.94
2019-06-08T05:36:09.820Z,17.96
2019-06-08T05:38:39.462Z,17.98
2019-06-08T05:41:08.072Z,17.96
2019-06-08T05:43:36.649Z,17.47
2019-06-08T05:46:05.252Z,17.96
2019-06-08T05:48:33.835Z,17.83
2019-06-08T05:51:04.111Z,17.89
2019-06-08T05:53:33.072Z,17.96
2019-06-08T05:56:01.644Z,18.07
2019-06-08T05:58:30.279Z,18.02
2019-06-08T06:00:58.834Z,18.04
2019-06-08T06:03:27.408Z,18.11
2019-06-08T06:05:55.970Z,18.10
2019-06-08T06:08:24.537Z,18.05
2019-06-08T06:10:53.130Z,17.93
2019-06-08T06:13:21.815Z,17.86
2019-06-08T06:15:51.740Z,17.92
2019-06-08T06:18:20.432Z,17.89
2019-06-08T06:20:49.420Z,17.94
2019-06-08T06:23:18.234Z,18.03
2019-06-08T06:25:47.531Z,18.06
2019-06-08T06:28:17.000Z,18.15
2019-06-08T06:30:46.688Z,18.18
2019-06-08T06:33:15.741Z,18.23
2019-06-08T06:35:45.669Z,18.14
2019-06-08T06:38:14.819Z,18.19
2019-06-08T06:40:43.966Z,18.23
2019-06-08T06:43:12.626Z,18.31
2019-06-08T06:45:41.849Z,18.29
2019-06-08T06:48:10.721Z,18.22
2019-06-08T06:50:39.305Z,18.26
2019-06-08T06:53:07.881Z,18.22
2019-06-08T06:55:36.748Z,18.16
2019-06-08T06:58:05.637Z,18.15
2019-06-08T07:00:34.237Z,18.17
2019-06-08T07:03:02.834Z,18.17
2019-06-08T07:05:31.395Z,18.21
2019-06-08T07:08:00.289Z,18.15
2019-06-08T07:10:28.847Z,18.28
2019-06-08T07:12:57.407Z,18.28
2019-06-08T07:15:29.186Z,18.32
2019-06-08T07:17:58.595Z,18.35
2019-06-08T07:20:27.571Z,18.35
2019-06-08T07:22:56.198Z,18.30
2019-06-08T07:25:25.067Z,18.30
2019-06-08T07:27:55.099Z,18.33
2019-06-08T07:30:23.814Z,18.43
2019-06-08T07:32:52.993Z,18.47
2019-06-08T07:35:21.619Z,18.48
2019-06-08T07:37:51.858Z,18.48
2019-06-08T07:40:20.497Z,18.53
2019-06-08T07:42:49.705Z,18.56
2019-06-08T07:45:19.431Z,18.54
2019-06-08T07:47:48.016Z,18.61
2019-06-08T07:50:16.966Z,18.63
2019-06-08T07:52:45.680Z,18.65
2019-06-08T07:55:14.287Z,18.64
2019-06-08T07:57:42.843Z,18.54
2019-06-08T08:00:11.724Z,18.41
2019-06-08T08:02:40.353Z,18.53
2019-06-08T08:05:09.177Z,18.56
2019-06-08T08:07:37.759Z,18.48
2019-06-08T08:10:07.162Z,18.55
2019-06-08T08:12:35.792Z,18.53
2019-06-08T08:15:04.737Z,18.69
2019-06-08T08:17:34.392Z,18.81
2019-06-08T08:20:03.137Z,18.88
2019-06-08T08:22:31.734Z,18.88
2019-06-08T08:25:04.599Z,18.85
2019-06-08T08:27:30.951Z,18.90
2019-06-08T08:30:01.724Z,18.93
2019-06-08T08:32:29.847Z,19.01
2019-06-08T08:35:01.050Z,18.95
2019-06-08T08:37:28.752Z,18.94
2019-06-08T08:39:59.651Z,18.97
2019-06-08T08:42:30.186Z,18.87
2019-06-08T08:45:02.648Z,18.78
2019-06-08T08:47:30.812Z,18.78
2019-06-08T08:50:01.917Z,18.83
2019-06-08T08:52:36.852Z,18.86
2019-06-08T08:55:00.914Z,18.94
2019-06-08T08:57:30.334Z,18.89
2019-06-08T09:00:04.334Z,18.83
2019-06-08T09:02:29.204Z,18.79
2019-06-08T09:05:00.311Z,18.83
2019-06-08T09:07:28.096Z,18.81
2019-06-08T09:10:00.464Z,18.83
2019-06-08T09:12:27.716Z,18.78
2019-06-08T09:14:58.890Z,18.71
2019-06-08T09:17:27.983Z,18.77
2019-06-08T09:19:58.882Z,18.79
2019-06-08T09:22:28.183Z,18.75
2019-06-08T09:25:01.261Z,18.65
2019-06-08T09:27:28.077Z,18.65
2019-06-08T09:29:59.697Z,18.73
2019-06-08T09:32:28.212Z,18.80
2019-06-08T09:34:59.576Z,18.83
2019-06-08T09:37:28.808Z,18.80
2019-06-08T09:39:58.957Z,18.77
2019-06-08T09:42:28.455Z,18.65
2019-06-08T09:45:00.422Z,18.64
2019-06-08T09:47:28.012Z,18.75
2019-06-08T09:50:01.452Z,18.76
2019-06-08T09:52:28.149Z,18.77
2019-06-08T09:55:01.989Z,18.78
2019-06-08T09:57:28.438Z,18.71
2019-06-08T09:59:59.842Z,18.72
2019-06-08T10:02:28.325Z,18.72
2019-06-08T10:05:00.487Z,18.74
2019-06-08T10:07:31.079Z,18.80
2019-06-08T10:10:00.343Z,18.80
2019-06-08T10:12:28.311Z,18.79
2019-06-08T10:14:58.667Z,18.76
2019-06-08T10:17:27.918Z,18.71
2019-06-08T10:20:00.240Z,18.54
2019-06-08T10:22:28.238Z,18.50
2019-06-08T10:25:00.278Z,18.47
2019-06-08T10:27:28.348Z,18.56
2019-06-08T10:30:00.014Z,18.57
2019-06-08T10:32:28.183Z,18.56
2019-06-08T10:34:59.801Z,18.56
2019-06-08T10:37:28.338Z,18.60
2019-06-08T10:40:00.637Z,18.56
2019-06-08T10:42:27.253Z,18.47
2019-06-08T10:44:59.323Z,18.47
2019-06-08T10:47:29.580Z,18.48
2019-06-08T10:49:59.553Z,18.48
2019-06-08T10:52:28.150Z,18.50
2019-06-08T10:54:59.759Z,18.54
2019-06-08T10:57:28.020Z,18.54
2019-06-08T10:59:57.942Z,18.46
2019-06-08T11:02:28.152Z,18.40
2019-06-08T11:04:58.790Z,18.24
2019-06-08T11:07:28.122Z,18.19
2019-06-08T11:09:58.644Z,18.17
2019-06-08T11:12:28.310Z,18.15
2019-06-08T11:14:58.393Z,18.19
2019-06-08T11:17:27.933Z,18.26
2019-06-08T11:19:59.439Z,18.32
2019-06-08T11:22:27.890Z,18.38
2019-06-08T11:24:58.562Z,18.45
2019-06-08T11:27:28.521Z,18.50
2019-06-08T11:29:57.562Z,18.51
2019-06-08T11:32:26.238Z,18.56
2019-06-08T11:34:55.060Z,18.47
2019-06-08T11:37:23.626Z,18.43
2019-06-08T11:39:52.239Z,18.36
2019-06-08T11:42:20.791Z,18.40
2019-06-08T11:44:51.222Z,16.99
2019-06-08T11:47:20.066Z,18.49
2019-06-08T11:49:50.026Z,18.51
2019-06-08T11:52:18.762Z,18.56
2019-06-08T11:54:48.053Z,18.58
2019-06-08T11:57:17.705Z,18.57
2019-06-08T11:59:48.473Z,18.53
2019-06-08T12:02:18.508Z,18.57
2019-06-08T12:04:47.555Z,18.60
2019-06-08T12:07:16.130Z,18.63
2019-06-08T12:09:44.740Z,18.66
2019-06-08T12:12:17.513Z,18.75
2019-06-08T12:14:43.650Z,18.77
2019-06-08T12:17:17.985Z,18.81
2019-06-08T12:19:42.527Z,18.75
2019-06-08T12:22:12.757Z,18.66
2019-06-08T12:24:42.665Z,18.59
2019-06-08T12:27:24.868Z,18.56
2019-06-08T12:29:42.274Z,18.59
2019-06-08T12:32:12.472Z,18.67
2019-06-08T12:34:41.113Z,18.68
2019-06-08T12:37:15.701Z,18.69
2019-06-08T12:39:39.943Z,18.73
2019-06-08T12:42:14.676Z,18.78
2019-06-08T12:44:38.781Z,18.84
2019-06-08T12:47:12.601Z,18.88
2019-06-08T12:49:40.444Z,18.88
2019-06-08T12:52:10.074Z,18.81
2019-06-08T12:54:38.825Z,18.80
2019-06-08T12:57:11.908Z,18.83
2019-06-08T12:59:38.433Z,18.89
2019-06-08T13:02:08.919Z,18.93
2019-06-08T13:04:38.414Z,19.03
2019-06-08T13:07:09.759Z,19.08
2019-06-08T13:09:38.106Z,19.17
2019-06-08T13:12:08.013Z,19.27
2019-06-08T13:14:38.511Z,19.30
2019-06-08T13:17:08.658Z,19.31
2019-06-08T13:19:38.750Z,19.24
2019-06-08T13:22:08.820Z,19.21
2019-06-08T13:24:37.815Z,19.19
2019-06-08T13:27:06.452Z,19.13
2019-06-08T13:29:35.031Z,19.15
2019-06-08T13:32:03.629Z,19.19
2019-06-08T13:34:32.220Z,19.26
2019-06-08T13:37:01.099Z,19.29
2019-06-08T13:39:29.965Z,19.32
2019-06-08T13:41:59.014Z,19.26
2019-06-08T13:44:28.009Z,19.18
2019-06-08T13:46:57.788Z,19.10
2019-06-08T13:49:29.741Z,19.06
2019-06-08T13:51:58.389Z,19.01
2019-06-08T13:54:30.892Z,18.96
2019-06-08T13:56:58.954Z,18.90
2019-06-08T13:59:30.699Z,18.84
2019-06-08T14:01:58.137Z,18.83
2019-06-08T14:04:26.670Z,18.82
2019-06-08T14:06:57.729Z,18.81
2019-06-08T14:09:28.500Z,18.84
2019-06-08T14:11:57.780Z,18.85
2019-06-08T14:14:28.839Z,18.83
2019-06-08T14:16:58.750Z,18.78
2019-06-08T14:19:29.701Z,18.77
2019-06-08T14:21:58.634Z,18.77
2019-06-08T14:24:33.842Z,18.82
2019-06-08T14:26:58.489Z,18.86
2019-06-08T14:29:28.853Z,18.86
2019-06-08T14:31:57.939Z,18.85
2019-06-08T14:34:29.032Z,18.87
2019-06-08T14:36:58.945Z,18.89
2019-06-08T14:39:29.610Z,18.91
2019-06-08T14:41:57.822Z,18.93
2019-06-08T14:44:31.333Z,18.93
2019-06-08T14:46:57.937Z,18.98
2019-06-08T14:49:34.707Z,19.02
2019-06-08T14:52:00.354Z,19.07
2019-06-08T14:54:33.272Z,19.12
2019-06-08T14:56:59.516Z,19.18
2019-06-08T14:59:30.460Z,19.34
2019-06-08T15:01:58.425Z,19.61
2019-06-08T15:04:34.113Z,19.79
2019-06-08T15:06:58.600Z,20.06
2019-06-08T15:09:29.822Z,20.11
2019-06-08T15:11:58.226Z,20.10
2019-06-08T15:14:30.679Z,20.04
2019-06-08T15:16:59.001Z,19.94
2019-06-08T15:19:32.537Z,19.80
2019-06-08T15:22:01.240Z,19.74
2019-06-08T15:24:32.309Z,19.66
2019-06-08T15:27:00.089Z,19.60
2019-06-08T15:29:30.705Z,19.58
2019-06-08T15:31:59.401Z,19.70
2019-06-08T15:34:30.080Z,20.03
2019-06-08T15:36:59.035Z,19.96
2019-06-08T15:39:29.041Z,19.75
2019-06-08T15:42:00.160Z,19.63
2019-06-08T15:44:30.130Z,19.52
2019-06-08T15:46:58.767Z,19.76
2019-06-08T15:49:30.940Z,19.91
2019-06-08T15:51:59.737Z,19.89
2019-06-08T15:54:33.085Z,19.76
2019-06-08T15:56:58.689Z,19.63
2019-06-08T15:59:35.041Z,19.66
2019-06-08T16:01:59.554Z,19.78
2019-06-08T16:04:28.174Z,19.83
2019-06-08T16:06:56.749Z,19.73
2019-06-08T16:09:25.952Z,19.59
2019-06-08T16:11:54.570Z,19.53
2019-06-08T16:14:23.723Z,19.44
2019-06-08T16:16:53.355Z,19.40
2019-06-08T16:19:21.932Z,19.38
2019-06-08T16:21:50.716Z,19.35
2019-06-08T16:24:19.319Z,19.38
2019-06-08T16:26:53.126Z,19.48
2019-06-08T16:29:18.198Z,19.58
2019-06-08T16:31:47.035Z,19.56
2019-06-08T16:34:16.384Z,19.55
2019-06-08T16:36:45.470Z,19.48
2019-06-08T16:39:13.999Z,19.41
2019-06-08T16:41:42.867Z,19.37
2019-06-08T16:44:11.470Z,19.30
2019-06-08T16:46:40.063Z,19.26
2019-06-08T16:49:08.898Z,19.25
2019-06-08T16:51:37.491Z,19.22
2019-06-08T16:54:06.379Z,19.20
2019-06-08T16:56:36.365Z,19.20
2019-06-08T16:59:05.225Z,19.22
2019-06-08T17:01:34.722Z,19.58
2019-06-08T17:04:03.475Z,19.83
2019-06-08T17:06:33.199Z,19.97
2019-06-08T17:09:02.450Z,19.84
2019-06-08T17:11:31.817Z,20.48
2019-06-08T17:14:00.333Z,20.57
2019-06-08T17:16:29.994Z,20.39
2019-06-08T17:18:59.111Z,20.26
2019-06-08T17:21:27.678Z,20.13
2019-06-08T17:23:56.319Z,20.32
2019-06-08T17:26:24.859Z,20.25
2019-06-08T17:28:53.456Z,20.05
2019-06-08T17:31:22.326Z,19.89
2019-06-08T17:33:50.904Z,19.74
2019-06-08T17:36:19.506Z,19.61
2019-06-08T17:38:48.085Z,19.52
2019-06-08T17:41:16.661Z,19.45
2019-06-08T17:43:45.529Z,19.41
2019-06-08T17:46:14.210Z,19.37
2019-06-08T17:48:43.161Z,19.30
2019-06-08T17:51:11.713Z,19.31
2019-06-08T17:53:40.933Z,19.27
2019-06-08T17:56:09.629Z,19.26
2019-06-08T17:58:39.608Z,19.31
2019-06-08T18:01:08.250Z,19.34
2019-06-08T18:03:38.392Z,19.39
2019-06-08T18:06:07.388Z,19.41
2019-06-08T18:08:39.167Z,19.33
2019-06-08T18:11:08.101Z,19.24
2019-06-08T18:13:40.461Z,19.14
2019-06-08T18:16:08.251Z,19.03
2019-06-08T18:18:39.258Z,18.98
2019-06-08T18:21:08.121Z,18.88
2019-06-08T18:23:39.973Z,18.87
2019-06-08T18:26:07.745Z,18.85
2019-06-08T18:28:38.830Z,18.89
2019-06-08T18:31:07.493Z,18.95
2019-06-08T18:33:39.479Z,18.92
2019-06-08T18:36:07.656Z,18.58
2019-06-08T18:38:39.800Z,18.40
2019-06-08T18:41:08.243Z,18.37
2019-06-08T18:43:39.599Z,18.33
2019-06-08T18:46:07.313Z,18.33
2019-06-08T18:48:39.866Z,18.29
2019-06-08T18:51:08.325Z,18.28
2019-06-08T18:53:56.396Z,18.33
2019-06-08T18:56:10.487Z,18.36
2019-06-08T18:58:39.734Z,18.36
2019-06-08T19:01:08.858Z,18.33
2019-06-08T19:03:43.111Z,18.30
2019-06-08T19:06:10.423Z,18.30
2019-06-08T19:08:43.452Z,18.34
2019-06-08T19:11:10.863Z,18.39
2019-06-08T19:13:39.686Z,18.41
2019-06-08T19:16:08.795Z,18.36
2019-06-08T19:18:43.252Z,18.31
2019-06-08T19:21:08.258Z,18.22
2019-06-08T19:23:39.009Z,18.20
2019-06-08T19:26:07.791Z,18.14
2019-06-08T19:28:40.994Z,18.06
2019-06-08T19:31:09.864Z,18.06
2019-06-08T19:33:38.917Z,18.08
2019-06-08T19:36:07.893Z,18.06
2019-06-08T19:38:38.406Z,18.06
2019-06-08T19:41:08.116Z,18.02
2019-06-08T19:43:39.030Z,17.95
2019-06-08T19:46:08.040Z,17.94
2019-06-08T19:48:39.259Z,17.95
2019-06-08T19:51:07.646Z,17.99
2019-06-08T19:53:42.172Z,17.95
2019-06-08T19:56:07.812Z,17.94
2019-06-08T19:58:50.733Z,17.92
2019-06-08T20:01:07.404Z,17.91
2019-06-08T20:03:37.857Z,17.90
2019-06-08T20:06:06.654Z,17.88
2019-06-08T20:08:37.386Z,17.85
2019-06-08T20:11:08.120Z,17.84
2019-06-08T20:13:37.525Z,17.83
2019-06-08T20:16:08.430Z,17.84
2019-06-08T20:18:37.634Z,17.84
2019-06-08T20:21:10.061Z,17.86
2019-06-08T20:23:38.212Z,17.86
2019-06-08T20:26:08.389Z,17.84
2019-06-08T20:28:37.505Z,17.81
2019-06-08T20:31:07.501Z,17.79
2019-06-08T20:33:37.849Z,17.77
2019-06-08T20:36:08.288Z,17.77
2019-06-08T20:38:39.698Z,17.79
2019-06-08T20:41:07.713Z,17.78
2019-06-08T20:43:38.106Z,17.76
2019-06-08T20:46:08.132Z,17.74
2019-06-08T20:48:37.764Z,17.68
2019-06-08T20:51:07.833Z,17.69
2019-06-08T20:53:38.747Z,17.63
2019-06-08T20:56:08.043Z,17.63
2019-06-08T20:58:37.230Z,17.64
2019-06-08T21:01:07.666Z,17.63
2019-06-08T21:03:36.471Z,17.62
2019-06-08T21:06:07.611Z,17.61
2019-06-08T21:08:37.228Z,17.60
2019-06-08T21:11:08.404Z,17.58
2019-06-08T21:13:37.496Z,17.58
2019-06-08T21:16:07.501Z,17.59
2019-06-08T21:18:37.965Z,17.57
2019-06-08T21:21:08.076Z,17.59
2019-06-08T21:23:37.344Z,17.53
2019-06-08T21:26:07.980Z,17.53
2019-06-08T21:28:38.418Z,17.50
2019-06-08T21:31:08.555Z,17.44
2019-06-08T21:33:37.941Z,17.42
2019-06-08T21:36:08.748Z,17.44
2019-06-08T21:38:37.710Z,17.42
2019-06-08T21:41:08.316Z,17.43
2019-06-08T21:43:37.467Z,17.39
2019-06-08T21:46:07.806Z,17.37
2019-06-08T21:48:38.146Z,17.36
2019-06-08T21:51:08.357Z,17.35
2019-06-08T21:53:38.203Z,17.30
2019-06-08T21:56:07.906Z,17.32
2019-06-08T21:58:37.850Z,17.34
2019-06-08T22:01:07.396Z,17.33
2019-06-08T22:03:38.136Z,17.31
2019-06-08T22:06:07.795Z,17.29
2019-06-08T22:08:37.617Z,17.26
2019-06-08T22:11:08.536Z,17.23
2019-06-08T22:13:37.427Z,17.19
2019-06-08T22:16:08.092Z,17.15
2019-06-08T22:18:38.078Z,17.14
2019-06-08T22:21:08.097Z,17.15
2019-06-08T22:23:36.908Z,17.18
2019-06-08T22:26:08.327Z,17.12
2019-06-08T22:28:37.770Z,17.04
2019-06-08T22:31:07.967Z,17.03
2019-06-08T22:33:37.755Z,17.04
2019-06-08T22:36:08.930Z,17.02
2019-06-08T22:38:37.346Z,17.05
2019-06-08T22:41:08.022Z,17.05
2019-06-08T22:43:37.454Z,17.04
2019-06-08T22:46:08.330Z,17.03
2019-06-08T22:48:38.436Z,17.03
2019-06-08T22:51:08.067Z,17.00
2019-06-08T22:53:38.379Z,16.99
2019-06-08T22:56:09.644Z,16.99
2019-06-08T22:58:38.271Z,16.95
2019-06-08T23:01:10.619Z,16.93
2019-06-08T23:03:37.408Z,16.95
2019-06-08T23:06:08.779Z,16.94
2019-06-08T23:08:37.547Z,16.96
2019-06-08T23:11:08.412Z,16.92
2019-06-08T23:13:37.656Z,16.90
2019-06-08T23:16:08.854Z,16.86
2019-06-08T23:18:37.309Z,16.81
2019-06-08T23:21:08.706Z,16.79
2019-06-08T23:23:38.097Z,16.75
2019-06-08T23:26:10.233Z,16.70
2019-06-08T23:28:37.829Z,16.65
2019-06-08T23:31:20.324Z,16.64
2019-06-08T23:33:38.743Z,16.61
2019-06-08T23:36:39.480Z,16.62
2019-06-08T23:38:37.826Z,16.61
2019-06-08T23:41:09.947Z,16.57
2019-06-08T23:43:38.462Z,16.56
2019-06-08T23:46:08.149Z,16.55
2019-06-08T23:48:37.424Z,16.50
2019-06-08T23:51:09.097Z,16.48
2019-06-08T23:53:38.199Z,16.49
2019-06-08T23:56:10.206Z,16.46
2019-06-08T23:58:37.436Z,16.44
